createdAt,value
2019-02-22T00:00:50.858Z,99.90
2019-02-22T00:03:20.060Z,99.90
2019-02-22T00:05:48.622Z,99.90
2019-02-22T00:08:17.930Z,99.90
2019-02-22T00:10:46.659Z,99.90
2019-02-22T00:13:15.233Z,99.90
2019-02-22T00:15:43.939Z,99.90
2019-02-22T00:18:12.768Z,99.90
2019-02-22T00:20:41.451Z,99.90
2019-02-22T00:23:10.094Z,99.90
2019-02-22T00:25:38.838Z,99.90
2019-02-22T00:28:07.475Z,99.90
2019-02-22T00:30:36.038Z,99.90
2019-02-22T00:33:04.792Z,99.90
2019-02-22T00:35:33.403Z,99.90
2019-02-22T00:38:02.000Z,99.90
2019-02-22T00:40:30.611Z,99.90
2019-02-22T00:42:59.255Z,99.90
2019-02-22T00:45:27.890Z,99.90
2019-02-22T00:47:56.503Z,99.90
2019-02-22T00:50:25.074Z,99.90
2019-02-22T00:52:53.986Z,99.90
2019-02-22T00:55:22.603Z,99.90
2019-02-22T00:57:51.172Z,99.90
2019-02-22T01:00:19.875Z,99.90
2019-02-22T01:02:48.577Z,99.90
2019-02-22T01:05:17.239Z,99.90
2019-02-22T01:07:45.950Z,99.90
2019-02-22T01:10:15.031Z,99.90
2019-02-22T01:12:43.603Z,99.90
2019-02-22T01:15:12.742Z,99.90
2019-02-22T01:17:41.497Z,99.90
2019-02-22T01:20:10.215Z,99.90
2019-02-22T01:22:38.838Z,99.90
2019-02-22T01:25:08.590Z,99.90
2019-02-22T01:27:37.224Z,99.90
2019-02-22T01:30:09.040Z,99.90
2019-02-22T01:32:37.843Z,99.90
2019-02-22T01:35:06.646Z,99.90
2019-02-22T01:37:35.291Z,99.90
2019-02-22T01:40:05.027Z,99.90
2019-02-22T01:42:33.597Z,99.90
2019-02-22T01:45:02.235Z,99.90
2019-02-22T01:47:30.903Z,99.90
2019-02-22T01:49:59.472Z,99.90
2019-02-22T01:52:28.045Z,99.90
2019-02-22T01:54:56.712Z,99.90
2019-02-22T01:57:25.275Z,99.90
2019-02-22T01:59:53.848Z,99.90
2019-02-22T02:02:22.526Z,99.90
2019-02-22T02:04:51.095Z,99.90
2019-02-22T02:07:20.208Z,99.90
2019-02-22T02:09:48.815Z,99.90
2019-02-22T02:12:17.520Z,99.90
2019-02-22T02:14:46.151Z,99.90
2019-02-22T02:17:14.935Z,99.90
2019-02-22T02:19:45.154Z,99.90
2019-02-22T02:22:13.858Z,99.90
2019-02-22T02:24:42.611Z,99.90
2019-02-22T02:27:11.318Z,99.90
2019-02-22T02:29:39.835Z,99.90
2019-02-22T02:32:08.324Z,99.90
2019-02-22T02:34:36.857Z,99.90
2019-02-22T02:37:05.311Z,99.90
2019-02-22T02:39:33.793Z,99.90
2019-02-22T02:42:02.251Z,99.90
2019-02-22T02:44:30.772Z,99.90
2019-02-22T02:46:59.327Z,99.90
2019-02-22T02:49:27.784Z,99.90
2019-02-22T02:51:56.239Z,99.90
2019-02-22T02:54:24.789Z,99.90
2019-02-22T02:56:53.239Z,99.90
2019-02-22T02:59:21.763Z,99.90
2019-02-22T03:01:50.348Z,99.90
2019-02-22T03:04:18.896Z,99.90
2019-02-22T03:06:52.522Z,99.90
2019-02-22T03:09:21.014Z,99.90
2019-02-22T03:11:49.467Z,99.90
2019-02-22T03:14:17.919Z,99.90
2019-02-22T03:16:46.662Z,99.90
2019-02-22T03:19:15.286Z,99.90
2019-02-22T03:21:43.744Z,99.90
2019-02-22T03:24:12.419Z,99.90
2019-02-22T03:26:40.886Z,99.90
2019-02-22T03:29:09.415Z,99.90
2019-02-22T03:31:37.911Z,99.90
2019-02-22T03:34:06.432Z,99.90
2019-02-22T03:36:34.976Z,99.90
2019-02-22T03:39:04.955Z,99.90
2019-02-22T03:41:33.686Z,99.90
2019-02-22T03:44:02.247Z,99.90
2019-02-22T03:46:30.715Z,99.90
2019-02-22T03:48:59.171Z,99.90
2019-02-22T03:51:27.650Z,99.90
2019-02-22T03:53:57.512Z,99.90
2019-02-22T03:56:26.375Z,99.90
2019-02-22T03:58:54.927Z,99.90
2019-02-22T04:01:23.526Z,99.90
2019-02-22T04:03:52.075Z,99.90
2019-02-22T04:06:20.529Z,99.90
2019-02-22T04:08:48.987Z,99.90
2019-02-22T04:11:17.460Z,99.90
2019-02-22T04:13:45.907Z,99.90
2019-02-22T04:16:14.388Z,99.90
2019-02-22T04:18:42.983Z,99.90
2019-02-22T04:21:11.791Z,99.90
2019-02-22T04:23:40.351Z,99.90
2019-02-22T04:26:08.875Z,99.90
2019-02-22T04:28:37.351Z,99.90
2019-02-22T04:31:05.810Z,99.90
2019-02-22T04:33:34.290Z,99.90
2019-02-22T04:36:02.816Z,99.90
2019-02-22T04:38:31.302Z,99.90
2019-02-22T04:40:59.834Z,99.90
2019-02-22T04:43:28.356Z,99.90
2019-02-22T04:45:56.835Z,99.90
2019-02-22T04:48:25.297Z,99.90
2019-02-22T04:50:54.131Z,99.90
2019-02-22T04:53:22.661Z,99.90
2019-02-22T04:55:51.191Z,99.90
2019-02-22T04:58:19.744Z,99.90
2019-02-22T05:00:48.278Z,99.90
2019-02-22T05:03:16.846Z,99.90
2019-02-22T05:05:45.368Z,99.90
2019-02-22T05:08:13.829Z,99.90
2019-02-22T05:10:42.302Z,99.90
2019-02-22T05:13:10.761Z,99.90
2019-02-22T05:15:39.320Z,99.90
2019-02-22T05:18:07.775Z,99.90
2019-02-22T05:20:36.229Z,99.90
2019-02-22T05:23:07.423Z,99.90
2019-02-22T05:25:35.023Z,99.90
2019-02-22T05:28:03.914Z,99.90
2019-02-22T05:30:32.566Z,99.90
2019-02-22T05:33:01.084Z,99.90
2019-02-22T05:35:29.576Z,99.90
2019-02-22T05:37:58.025Z,99.90
2019-02-22T05:40:26.530Z,99.90
2019-02-22T05:42:55.052Z,99.90
2019-02-22T05:45:23.502Z,99.90
2019-02-22T05:47:51.976Z,99.90
2019-02-22T05:50:20.431Z,99.90
2019-02-22T05:52:49.061Z,99.90
2019-02-22T05:55:17.589Z,99.90
2019-02-22T05:57:46.120Z,99.90
2019-02-22T06:00:15.832Z,99.90
2019-02-22T06:02:44.359Z,99.90
2019-02-22T06:05:12.845Z,99.90
2019-02-22T06:07:41.327Z,99.90
2019-02-22T06:10:10.899Z,99.90
2019-02-22T06:12:39.527Z,99.90
2019-02-22T06:15:08.831Z,99.90
2019-02-22T06:17:37.310Z,99.90
2019-02-22T06:20:11.375Z,99.90
2019-02-22T06:22:39.998Z,99.90
2019-02-22T06:25:08.528Z,99.90
2019-02-22T06:27:37.126Z,99.90
2019-02-22T06:30:08.342Z,99.90
2019-02-22T06:32:36.797Z,99.90
2019-02-22T06:35:08.825Z,99.90
2019-02-22T06:37:36.875Z,99.90
2019-02-22T06:40:08.104Z,99.90
2019-02-22T06:42:45.201Z,99.90
2019-02-22T06:45:08.518Z,99.90
2019-02-22T06:47:37.002Z,99.90
2019-02-22T06:50:07.767Z,99.90
2019-02-22T06:52:36.243Z,99.90
2019-02-22T06:55:05.844Z,99.90
2019-02-22T06:57:34.363Z,99.90
2019-02-22T07:00:03.934Z,99.90
2019-02-22T07:02:32.444Z,99.90
2019-02-22T07:05:00.936Z,99.90
2019-02-22T07:07:29.459Z,99.90
2019-02-22T07:09:57.940Z,99.90
2019-02-22T07:12:30.835Z,99.90
2019-02-22T07:14:59.385Z,99.90
2019-02-22T07:17:27.846Z,99.90
2019-02-22T07:19:56.392Z,99.90
2019-02-22T07:22:24.875Z,99.90
2019-02-22T07:24:53.399Z,99.90
2019-02-22T07:27:21.967Z,99.90
2019-02-22T07:29:50.504Z,99.90
2019-02-22T07:32:19.027Z,99.90
2019-02-22T07:34:47.529Z,99.90
2019-02-22T07:37:16.045Z,99.90
2019-02-22T07:39:44.934Z,99.90
2019-02-22T07:42:13.392Z,99.90
2019-02-22T07:44:41.851Z,99.90
2019-02-22T07:47:10.327Z,99.90
2019-02-22T07:49:38.966Z,99.90
2019-02-22T07:52:07.591Z,99.90
2019-02-22T07:54:36.082Z,99.90
2019-02-22T07:57:04.542Z,99.90
2019-02-22T07:59:33.098Z,99.90
2019-02-22T08:02:01.560Z,99.90
2019-02-22T08:04:30.039Z,99.90
2019-02-22T08:06:58.499Z,99.90
2019-02-22T08:09:26.967Z,99.90
2019-02-22T08:11:55.443Z,99.90
2019-02-22T08:14:23.899Z,99.90
2019-02-22T08:16:52.404Z,99.90
2019-02-22T08:19:20.924Z,99.90
2019-02-22T08:21:49.384Z,99.90
2019-02-22T08:24:17.868Z,99.90
2019-02-22T08:26:46.400Z,99.90
2019-02-22T08:29:14.955Z,99.90
2019-02-22T08:31:43.415Z,99.90
2019-02-22T08:34:12.047Z,99.90
2019-02-22T08:36:40.514Z,99.90
2019-02-22T08:39:09.042Z,99.90
2019-02-22T08:41:37.524Z,99.90
2019-02-22T08:44:05.983Z,99.90
2019-02-22T08:46:34.885Z,99.90
2019-02-22T08:49:03.344Z,99.90
2019-02-22T08:51:32.000Z,99.90
2019-02-22T08:54:00.457Z,99.90
2019-02-22T08:56:28.999Z,99.90
2019-02-22T08:58:57.495Z,99.90
2019-02-22T09:01:26.023Z,99.90
2019-02-22T09:03:54.520Z,99.90
2019-02-22T09:06:23.123Z,99.90
2019-02-22T09:08:51.583Z,99.90
2019-02-22T09:11:20.065Z,99.90
2019-02-22T09:13:48.527Z,99.90
2019-02-22T09:16:17.462Z,99.90
2019-02-22T09:18:45.994Z,99.90
2019-02-22T09:21:14.448Z,99.90
2019-02-22T09:23:42.932Z,99.90
2019-02-22T09:26:11.406Z,99.90
2019-02-22T09:28:39.958Z,99.90
2019-02-22T09:31:08.414Z,99.90
2019-02-22T09:33:36.947Z,99.90
2019-02-22T09:36:05.424Z,99.90
2019-02-22T09:38:33.884Z,99.90
2019-02-22T09:41:02.812Z,99.10
2019-02-22T09:43:31.279Z,99.00
2019-02-22T09:45:59.736Z,99.40
2019-02-22T09:48:28.224Z,99.00
2019-02-22T09:50:56.718Z,99.60
2019-02-22T09:53:25.352Z,99.70
2019-02-22T09:55:53.883Z,99.20
2019-02-22T09:58:22.340Z,99.80
2019-02-22T10:00:50.828Z,99.30
2019-02-22T10:03:19.366Z,98.30
2019-02-22T10:05:48.025Z,97.30
2019-02-22T10:08:16.584Z,98.10
2019-02-22T10:10:45.045Z,97.60
2019-02-22T10:13:13.528Z,98.30
2019-02-22T10:15:41.979Z,96.90
2019-02-22T10:18:10.455Z,95.20
2019-02-22T10:20:38.905Z,94.40
2019-02-22T10:23:07.437Z,94.50
2019-02-22T10:25:35.915Z,95.70
2019-02-22T10:28:04.436Z,95.80
2019-02-22T10:30:32.921Z,95.40
2019-02-22T10:33:01.454Z,95.00
2019-02-22T10:35:29.984Z,93.00
2019-02-22T10:37:58.458Z,92.70
2019-02-22T10:40:26.907Z,92.20
2019-02-22T10:42:55.396Z,90.50
2019-02-22T10:45:23.871Z,86.00
2019-02-22T10:47:52.385Z,81.20
2019-02-22T10:50:20.870Z,78.80
2019-02-22T10:52:49.399Z,72.30
2019-02-22T10:55:17.956Z,72.20
2019-02-22T10:57:46.475Z,67.90
2019-02-22T11:00:15.465Z,69.30
2019-02-22T11:02:43.935Z,72.50
2019-02-22T11:05:12.528Z,71.40
2019-02-22T11:07:41.083Z,67.10
2019-02-22T11:10:11.739Z,64.50
2019-02-22T11:12:40.218Z,63.80
2019-02-22T11:15:10.712Z,65.00
2019-02-22T11:17:39.167Z,63.80
2019-02-22T11:20:09.680Z,67.10
2019-02-22T11:22:38.139Z,72.40
2019-02-22T11:25:14.342Z,73.10
2019-02-22T11:27:42.879Z,75.30
2019-02-22T11:30:16.027Z,77.00
2019-02-22T11:32:44.583Z,79.60
2019-02-22T11:35:13.043Z,80.10
2019-02-22T11:37:41.526Z,81.60
2019-02-22T11:40:11.088Z,83.80
2019-02-22T11:42:39.540Z,84.20
2019-02-22T11:45:09.547Z,84.50
2019-02-22T11:47:38.062Z,85.40
2019-02-22T11:50:09.522Z,86.90
2019-02-22T11:52:38.195Z,86.90
2019-02-22T11:55:09.267Z,85.60
2019-02-22T11:57:37.787Z,82.60
2019-02-22T12:00:09.714Z,81.80
2019-02-22T12:02:38.235Z,79.90
2019-02-22T12:05:06.755Z,80.60
2019-02-22T12:07:36.083Z,82.60
2019-02-22T12:10:06.482Z,82.30
2019-02-22T12:12:34.936Z,83.10
2019-02-22T12:15:04.002Z,81.60
2019-02-22T12:17:32.526Z,83.70
2019-02-22T12:20:00.979Z,81.30
2019-02-22T12:22:29.468Z,82.50
2019-02-22T12:24:57.916Z,81.70
2019-02-22T12:27:26.367Z,82.00
2019-02-22T12:29:55.035Z,78.90
2019-02-22T12:32:23.497Z,75.20
2019-02-22T12:34:51.955Z,76.70
2019-02-22T12:37:20.671Z,75.60
2019-02-22T12:39:49.123Z,70.70
2019-02-22T12:42:17.575Z,70.80
2019-02-22T12:44:46.131Z,65.30
2019-02-22T12:47:14.578Z,62.90
2019-02-22T12:49:43.031Z,57.20
2019-02-22T12:52:11.693Z,59.50
2019-02-22T12:54:40.214Z,57.00
2019-02-22T12:57:08.671Z,52.30
2019-02-22T12:59:37.399Z,47.50
2019-02-22T13:02:05.923Z,42.10
2019-02-22T13:04:34.399Z,39.90
2019-02-22T13:07:03.220Z,39.60
2019-02-22T13:09:36.429Z,40.10
2019-02-22T13:12:01.855Z,38.90
2019-02-22T13:14:30.495Z,35.70
2019-02-22T13:16:58.955Z,36.30
2019-02-22T13:19:27.403Z,36.20
2019-02-22T13:21:56.291Z,39.60
2019-02-22T13:24:24.831Z,40.20
2019-02-22T13:26:53.355Z,40.30
2019-02-22T13:29:21.848Z,39.60
2019-02-22T13:31:50.390Z,39.30
2019-02-22T13:34:18.915Z,40.10
2019-02-22T13:36:47.484Z,39.50
2019-02-22T13:39:16.075Z,41.00
2019-02-22T13:41:44.601Z,42.40
2019-02-22T13:44:13.243Z,43.40
2019-02-22T13:46:41.772Z,42.60
2019-02-22T13:49:10.296Z,40.70
2019-02-22T13:51:38.839Z,39.70
2019-02-22T13:54:07.637Z,37.70
2019-02-22T13:56:36.139Z,40.00
2019-02-22T13:59:04.684Z,42.90
2019-02-22T14:01:33.286Z,46.40
2019-02-22T14:04:01.747Z,50.00
2019-02-22T14:06:30.243Z,52.90
2019-02-22T14:08:58.702Z,56.50
2019-02-22T14:11:27.227Z,58.10
2019-02-22T14:13:55.890Z,58.70
2019-02-22T14:16:24.346Z,60.90
2019-02-22T14:18:52.797Z,56.30
2019-02-22T14:21:21.284Z,52.30
2019-02-22T14:23:49.744Z,47.40
2019-02-22T14:26:18.284Z,47.20
2019-02-22T14:28:48.707Z,47.90
2019-02-22T14:31:17.246Z,51.10
2019-02-22T14:33:45.700Z,53.20
2019-02-22T14:36:14.252Z,54.60
2019-02-22T14:38:42.859Z,57.60
2019-02-22T14:41:11.468Z,62.30
2019-02-22T14:43:39.939Z,65.20
2019-02-22T14:46:08.395Z,65.70
2019-02-22T14:48:36.848Z,65.70
2019-02-22T14:51:05.323Z,66.70
2019-02-22T14:53:33.772Z,69.60
2019-02-22T14:56:02.224Z,70.60
2019-02-22T14:58:30.707Z,70.90
2019-02-22T15:00:59.163Z,72.00
2019-02-22T15:03:27.649Z,74.30
2019-02-22T15:05:56.231Z,76.60
2019-02-22T15:08:24.686Z,77.10
2019-02-22T15:10:53.175Z,76.60
2019-02-22T15:13:21.727Z,76.80
2019-02-22T15:16:03.666Z,73.90
2019-02-22T15:18:31.305Z,69.20
2019-02-22T15:20:59.827Z,69.70
2019-02-22T15:23:28.358Z,68.30
2019-02-22T15:25:57.195Z,67.70
2019-02-22T15:28:26.456Z,68.40
2019-02-22T15:30:55.178Z,68.30
2019-02-22T15:33:23.903Z,68.30
2019-02-22T15:35:52.447Z,70.00
2019-02-22T15:38:20.994Z,71.50
2019-02-22T15:40:49.572Z,72.10
2019-02-22T15:43:18.054Z,74.50
2019-02-22T15:45:47.254Z,73.10
2019-02-22T15:48:16.303Z,73.30
2019-02-22T15:50:44.754Z,74.60
2019-02-22T15:53:13.200Z,76.50
2019-02-22T15:55:41.678Z,78.90
2019-02-22T15:58:10.126Z,78.60
2019-02-22T16:00:38.583Z,79.40
2019-02-22T16:03:07.072Z,80.90
2019-02-22T16:05:37.233Z,82.00
2019-02-22T16:08:07.725Z,82.90
2019-02-22T16:10:35.956Z,84.60
2019-02-22T16:13:04.403Z,86.80
2019-02-22T16:15:32.995Z,87.70
2019-02-22T16:18:01.483Z,87.80
2019-02-22T16:20:30.091Z,90.20
2019-02-22T16:22:58.535Z,91.20
2019-02-22T16:25:27.089Z,91.40
2019-02-22T16:27:55.620Z,92.10
2019-02-22T16:30:25.903Z,92.90
2019-02-22T16:32:54.375Z,93.20
2019-02-22T16:35:22.836Z,93.60
2019-02-22T16:37:51.408Z,93.60
2019-02-22T16:40:19.860Z,94.00
2019-02-22T16:42:48.315Z,94.20
2019-02-22T16:45:16.805Z,94.50
2019-02-22T16:47:45.251Z,94.80
2019-02-22T16:50:14.439Z,95.20
2019-02-22T16:52:45.150Z,95.70
2019-02-22T16:55:15.203Z,96.00
2019-02-22T16:57:43.732Z,96.30
2019-02-22T17:00:14.148Z,96.60
2019-02-22T17:02:43.571Z,96.80
2019-02-22T17:05:16.527Z,97.10
2019-02-22T17:07:45.094Z,97.20
2019-02-22T17:10:13.682Z,97.20
2019-02-22T17:12:42.282Z,97.60
2019-02-22T17:15:12.217Z,97.90
2019-02-22T17:17:40.744Z,98.40
2019-02-22T17:20:11.118Z,98.90
2019-02-22T17:22:39.664Z,99.30
2019-02-22T17:25:11.133Z,99.60
2019-02-22T17:27:42.336Z,99.90
2019-02-22T17:30:15.920Z,99.90
2019-02-22T17:32:44.453Z,99.90
2019-02-22T17:35:13.045Z,99.90
2019-02-22T17:37:41.999Z,99.90
2019-02-22T17:40:18.907Z,99.90
2019-02-22T17:42:47.497Z,99.90
2019-02-22T17:45:16.020Z,99.90
2019-02-22T17:47:44.552Z,99.90
2019-02-22T17:50:13.176Z,99.90
2019-02-22T17:52:41.721Z,99.90
2019-02-22T17:55:10.633Z,99.90
2019-02-22T17:57:39.304Z,99.90
2019-02-22T18:00:17.215Z,99.90
2019-02-22T18:02:45.780Z,99.90
2019-02-22T18:05:14.484Z,99.90
2019-02-22T18:07:43.092Z,99.90
2019-02-22T18:10:12.208Z,99.90
2019-02-22T18:12:40.657Z,99.90
2019-02-22T18:15:11.744Z,99.90
2019-02-22T18:17:41.693Z,99.90
2019-02-22T18:20:10.222Z,99.90
2019-02-22T18:22:38.750Z,99.90
2019-02-22T18:25:08.763Z,99.90
2019-02-22T18:27:37.288Z,99.90
2019-02-22T18:30:08.815Z,99.90
2019-02-22T18:32:37.313Z,99.90
2019-02-22T18:35:07.076Z,99.90
2019-02-22T18:37:35.602Z,99.90
2019-02-22T18:40:06.901Z,99.90
2019-02-22T18:42:35.520Z,99.90
2019-02-22T18:47:32.765Z,99.90
2019-02-22T18:50:01.302Z,99.90
2019-02-22T18:52:29.825Z,99.90
2019-02-22T18:54:58.304Z,99.90
2019-02-22T18:57:26.839Z,99.90
2019-02-22T18:59:55.371Z,99.90
2019-02-22T19:02:24.007Z,99.90
2019-02-22T19:04:52.847Z,99.90
2019-02-22T19:07:21.635Z,99.90
2019-02-22T19:09:50.311Z,99.90
2019-02-22T19:12:18.856Z,99.90
2019-02-22T19:14:47.407Z,99.90
2019-02-22T19:17:15.993Z,99.90
2019-02-22T19:19:44.521Z,99.90
2019-02-22T19:22:13.309Z,99.90
2019-02-22T19:24:41.856Z,99.90
2019-02-22T19:27:10.322Z,99.90
2019-02-22T19:29:38.911Z,99.90
2019-02-22T19:32:07.399Z,99.90
2019-02-22T19:34:35.861Z,99.90
2019-02-22T19:37:04.385Z,99.90
2019-02-22T19:39:32.974Z,99.90
2019-02-22T19:42:01.484Z,99.90
2019-02-22T19:44:30.018Z,99.90
2019-02-22T19:46:58.665Z,99.90
2019-02-22T19:49:27.199Z,99.90
2019-02-22T19:51:55.764Z,99.90
2019-02-22T19:54:24.471Z,99.90
2019-02-22T19:56:52.993Z,99.90
2019-02-22T19:59:21.450Z,99.90
2019-02-22T20:01:50.119Z,99.90
2019-02-22T20:04:18.572Z,99.90
2019-02-22T20:06:47.101Z,99.90
2019-02-22T20:09:15.964Z,99.90
2019-02-22T20:11:44.584Z,99.90
2019-02-22T20:14:13.200Z,99.90
2019-02-22T20:16:41.836Z,99.90
2019-02-22T20:19:10.361Z,99.90
2019-02-22T20:21:38.904Z,99.90
2019-02-22T20:24:07.523Z,99.90
2019-02-22T20:26:36.012Z,99.90
2019-02-22T20:29:04.596Z,99.90
2019-02-22T20:31:33.220Z,99.90
2019-02-22T20:34:01.715Z,99.90
2019-02-22T20:36:32.020Z,99.90
2019-02-22T20:39:00.765Z,99.90
2019-02-22T20:41:29.307Z,99.90
2019-02-22T20:43:57.845Z,99.90
2019-02-22T20:46:26.416Z,99.90
2019-02-22T20:49:00.808Z,99.90
2019-02-22T20:51:25.072Z,99.90
2019-02-22T20:53:53.638Z,99.90
2019-02-22T20:56:22.159Z,99.90
2019-02-22T20:58:50.616Z,99.90
2019-02-22T21:01:19.177Z,99.90
2019-02-22T21:03:47.640Z,99.90
2019-02-22T21:06:16.094Z,99.90
2019-02-22T21:08:44.772Z,99.90
2019-02-22T21:11:13.240Z,99.90
2019-02-22T21:13:42.255Z,99.90
2019-02-22T21:16:10.747Z,99.90
2019-02-22T21:18:39.268Z,99.90
2019-02-22T21:21:07.751Z,99.90
2019-02-22T21:23:36.219Z,99.90
2019-02-22T21:26:04.787Z,99.90
2019-02-22T21:28:33.403Z,99.90
2019-02-22T21:31:01.873Z,99.90
2019-02-22T21:33:30.436Z,99.90
2019-02-22T21:35:58.966Z,99.90
2019-02-22T21:38:28.449Z,99.90
2019-02-22T21:40:56.904Z,99.90
2019-02-22T21:43:25.376Z,99.90
2019-02-22T21:45:53.936Z,99.90
2019-02-22T21:48:27.494Z,99.90
2019-02-22T21:50:52.705Z,99.90
2019-02-22T21:53:21.221Z,99.90
2019-02-22T21:55:49.736Z,99.90
2019-02-22T21:58:18.192Z,99.90
2019-02-22T22:00:46.672Z,99.90
2019-02-22T22:03:15.725Z,99.90
2019-02-22T22:05:45.041Z,99.90
2019-02-22T22:08:14.024Z,99.90
2019-02-22T22:10:42.935Z,99.90
2019-02-22T22:13:11.875Z,99.90
2019-02-22T22:15:40.419Z,99.90
2019-02-22T22:18:08.870Z,99.90
2019-02-22T22:20:37.326Z,99.90
2019-02-22T22:23:05.816Z,99.90
2019-02-22T22:25:34.375Z,99.90
2019-02-22T22:28:03.025Z,99.90
2019-02-22T22:30:31.572Z,99.90
2019-02-22T22:33:00.033Z,99.90
2019-02-22T22:35:28.567Z,99.90
2019-02-22T22:37:57.127Z,99.90
2019-02-22T22:40:25.586Z,99.90
2019-02-22T22:42:54.051Z,99.90
2019-02-22T22:45:22.693Z,99.90
2019-02-22T22:47:51.285Z,99.90
2019-02-22T22:50:19.724Z,99.90
2019-02-22T22:52:48.212Z,99.90
2019-02-22T22:55:16.747Z,99.90
2019-02-22T22:57:45.272Z,99.90
2019-02-22T23:00:39.844Z,99.90
2019-02-22T23:03:08.463Z,99.90
2019-02-22T23:05:37.110Z,99.90
2019-02-22T23:08:05.745Z,99.90
2019-02-22T23:10:34.276Z,99.90
2019-02-22T23:13:02.749Z,99.90
2019-02-22T23:15:31.303Z,99.90
2019-02-22T23:17:59.839Z,99.90
2019-02-22T23:20:28.525Z,99.90
2019-02-22T23:22:57.199Z,99.90
2019-02-22T23:25:25.820Z,99.90
2019-02-22T23:27:54.349Z,99.90
2019-02-22T23:30:23.072Z,99.90
2019-02-22T23:32:52.013Z,99.90
2019-02-22T23:35:21.229Z,99.90
2019-02-22T23:37:50.421Z,99.90
2019-02-22T23:40:19.026Z,99.90
2019-02-22T23:42:47.568Z,99.90
2019-02-22T23:45:17.801Z,99.90
2019-02-22T23:47:46.588Z,99.90
2019-02-22T23:50:15.195Z,99.90
2019-02-22T23:52:44.181Z,99.90
2019-02-22T23:55:12.776Z,99.90
2019-02-22T23:57:41.415Z,99.90
